Time;durP1;ratioP1;P1;durP2;ratioP2;P2;SDS_P1;SDS_P2;PMS_P1;PMS_P2;Temp;Humidity;BMP_temperature;BMP_pressure;BME280_temperature;BME280_humidity;BME280_pressure;Samples;Min_cycle;Max_cycle;Signal;HPM_P1;HPM_P2
2022/07/21 00:00:57;;;;;;;7.53;3.93;;;21.40;99.90;;;;;;5118210;27;20302;-76
2022/07/21 00:03:26;;;;;;;7.00;3.87;;;21.40;99.90;;;;;;5113023;28;20204;-74
2022/07/21 00:05:54;;;;;;;7.43;4.17;;;21.30;99.90;;;;;;5115793;27;20198;-75
2022/07/21 00:08:23;;;;;;;7.17;3.90;;;21.30;99.90;;;;;;5124115;27;20198;-75
2022/07/21 00:10:53;;;;;;;7.70;4.07;;;21.30;99.90;;;;;;5134179;27;20201;-75
2022/07/21 00:13:22;;;;;;;7.97;4.07;;;21.40;99.90;;;;;;5130168;27;20233;-75
2022/07/21 00:15:53;;;;;;;6.33;3.87;;;21.30;99.90;;;;;;5120316;27;20629;-74
2022/07/21 00:18:22;;;;;;;7.20;3.83;;;21.30;99.90;;;;;;5113075;28;20293;-74
2022/07/21 00:20:50;;;;;;;8.17;3.70;;;21.40;99.90;;;;;;5112637;28;20322;-74
2022/07/21 00:23:19;;;;;;;6.37;4.17;;;21.40;99.90;;;;;;5122570;28;20204;-74
2022/07/21 00:25:47;;;;;;;8.93;3.93;;;21.40;99.90;;;;;;5132819;27;20201;-75
2022/07/21 00:28:19;;;;;;;5.80;3.63;;;21.40;99.90;;;;;;5135070;28;20239;-75
2022/07/21 00:30:49;;;;;;;6.53;3.80;;;21.40;99.90;;;;;;5136470;27;20206;-74
2022/07/21 00:33:18;;;;;;;6.27;3.60;;;21.30;99.90;;;;;;5136903;27;20238;-75
2022/07/21 00:35:49;;;;;;;8.17;3.93;;;21.30;99.90;;;;;;5128493;27;20285;-75
2022/07/21 00:38:17;;;;;;;7.47;3.87;;;21.20;99.90;;;;;;5124007;28;20228;-75
2022/07/21 00:40:46;;;;;;;7.47;4.00;;;21.20;99.90;;;;;;5136390;28;20264;-76
2022/07/21 00:43:14;;;;;;;6.30;3.63;;;21.20;99.90;;;;;;5129760;27;20284;-75
2022/07/21 00:45:43;;;;;;;5.37;4.07;;;21.10;99.90;;;;;;5129692;28;20229;-75
2022/07/21 00:48:12;;;;;;;6.93;4.10;;;21.10;99.90;;;;;;5133089;27;20198;-77
2022/07/21 00:50:40;;;;;;;5.30;3.50;;;21.10;99.90;;;;;;5112571;28;20255;-76
2022/07/21 00:53:09;;;;;;;5.10;3.63;;;21.00;99.90;;;;;;5118541;28;20233;-75
2022/07/21 00:55:37;;;;;;;8.17;4.00;;;21.00;99.90;;;;;;5122487;28;20667;-76
2022/07/21 00:58:06;;;;;;;6.80;3.80;;;21.10;99.90;;;;;;5122397;27;20528;-75
2022/07/21 01:00:37;;;;;;;7.47;4.10;;;21.10;99.90;;;;;;5114753;28;20328;-76
2022/07/21 01:03:06;;;;;;;5.97;3.60;;;21.00;99.90;;;;;;5128545;28;20202;-75
2022/07/21 01:05:36;;;;;;;5.40;3.63;;;21.00;99.90;;;;;;5127660;28;20206;-76
2022/07/21 01:08:05;;;;;;;4.90;3.50;;;21.00;99.90;;;;;;5112517;28;20575;-76
2022/07/21 01:10:33;;;;;;;5.63;4.20;;;21.00;99.90;;;;;;5112714;28;20234;-75
2022/07/21 01:13:02;;;;;;;8.17;3.93;;;21.10;99.90;;;;;;5116376;28;20285;-75
2022/07/21 01:15:33;;;;;;;7.30;3.90;;;21.10;99.90;;;;;;5116196;28;20195;-77
2022/07/21 01:18:03;;;;;;;4.73;3.43;;;21.10;99.90;;;;;;5115829;28;20229;-74
2022/07/21 01:20:36;;;;;;;7.40;3.50;;;21.10;99.90;;;;;;5121407;27;20221;-75
2022/07/21 01:23:06;;;;;;;4.77;3.67;;;21.10;99.90;;;;;;5129581;27;20292;-74
2022/07/21 01:25:34;;;;;;;4.37;3.30;;;21.10;99.90;;;;;;5133897;27;20194;-74
2022/07/21 01:28:05;;;;;;;6.37;3.67;;;21.00;99.90;;;;;;5134559;27;20629;-74
2022/07/21 01:30:34;;;;;;;5.27;3.70;;;21.00;99.90;;;;;;5134972;27;20720;-74
2022/07/21 01:33:02;;;;;;;4.30;3.40;;;20.90;99.90;;;;;;5135079;27;20200;-75
2022/07/21 01:35:31;;;;;;;7.77;3.33;;;20.90;99.90;;;;;;5132031;27;20237;-75
2022/07/21 01:38:02;;;;;;;6.17;3.50;;;20.90;99.90;;;;;;5115547;27;20224;-74
2022/07/21 01:43:19;;;;;;;4.63;3.30;;;20.80;99.90;;;;;;5115160;28;20320;-76
2022/07/21 01:45:47;;;;;;;6.30;3.20;;;20.70;99.90;;;;;;5120028;27;20291;-74
2022/07/21 01:48:15;;;;;;;5.70;3.67;;;20.70;99.90;;;;;;5136140;27;20209;-74
2022/07/21 01:50:44;;;;;;;6.70;3.70;;;20.70;99.90;;;;;;5124696;27;20263;-75
2022/07/21 01:53:12;;;;;;;6.43;3.70;;;20.60;99.90;;;;;;5125520;27;20228;-75
2022/07/21 01:55:42;;;;;;;7.60;3.53;;;20.60;99.90;;;;;;5131459;27;20206;-75
2022/07/21 01:58:10;;;;;;;4.30;3.53;;;20.50;99.90;;;;;;5127056;27;20199;-74
2022/07/21 02:00:39;;;;;;;4.30;3.70;;;20.50;99.90;;;;;;5115331;28;20313;-74
2022/07/21 02:03:08;;;;;;;5.50;4.00;;;20.40;99.90;;;;;;5115225;27;20598;-75
2022/07/21 02:05:36;;;;;;;6.57;3.60;;;20.40;99.90;;;;;;5115041;28;20664;-74
2022/07/21 02:08:05;;;;;;;6.30;3.80;;;20.30;99.90;;;;;;5115246;28;20210;-75
2022/07/21 02:10:33;;;;;;;5.13;3.77;;;20.30;99.90;;;;;;5115361;28;20677;-75
2022/07/21 02:13:03;;;;;;;6.83;3.77;;;20.20;99.90;;;;;;5115287;27;20728;-75
2022/07/21 02:15:32;;;;;;;5.23;3.67;;;20.20;99.90;;;;;;5115329;28;20292;-74
2022/07/21 02:18:00;;;;;;;5.53;3.60;;;20.20;99.90;;;;;;5114983;28;20264;-74
2022/07/21 02:20:28;;;;;;;6.97;3.90;;;20.10;99.90;;;;;;5114864;28;20222;-77
2022/07/21 02:22:56;;;;;;;4.67;3.77;;;20.10;99.90;;;;;;5113716;28;20202;-76
2022/07/21 02:25:25;;;;;;;5.13;3.67;;;20.10;99.90;;;;;;5114362;27;20289;-77
2022/07/21 02:27:54;;;;;;;5.83;4.30;;;20.00;99.90;;;;;;5116117;28;20716;-77
2022/07/21 02:30:23;;;;;;;5.20;4.20;;;20.00;99.90;;;;;;5116479;28;20601;-76
2022/07/21 02:32:51;;;;;;;5.00;3.90;;;20.00;99.90;;;;;;5120460;28;20206;-77
2022/07/21 02:35:20;;;;;;;8.47;4.70;;;19.90;99.90;;;;;;5118478;27;20575;-75
2022/07/21 02:37:48;;;;;;;4.80;4.30;;;19.90;99.90;;;;;;5135071;27;20273;-75
2022/07/21 02:40:17;;;;;;;5.93;4.30;;;19.90;99.90;;;;;;5135590;27;20326;-74
2022/07/21 02:42:48;;;;;;;5.63;4.40;;;19.80;99.90;;;;;;5134802;27;20234;-74
2022/07/21 02:45:16;;;;;;;6.70;4.57;;;19.80;99.90;;;;;;5132702;27;20209;-76
2022/07/21 02:47:54;;;;;;;5.07;3.90;;;19.90;99.90;;;;;;5117870;27;20224;-74
2022/07/21 02:50:25;;;;;;;5.50;4.37;;;19.90;99.90;;;;;;5132142;27;20229;-74
2022/07/21 02:52:56;;;;;;;4.97;4.10;;;19.90;99.90;;;;;;5135352;27;20200;-76
2022/07/21 02:55:24;;;;;;;7.23;4.37;;;19.90;99.90;;;;;;5132213;27;20203;-75
2022/07/21 02:58:11;;;;;;;6.60;4.37;;;19.90;99.90;;;;;;5115474;28;20244;-75
2022/07/21 03:00:42;;;;;;;8.53;4.30;;;19.90;99.90;;;;;;5113615;28;20766;-74
2022/07/21 03:03:13;;;;;;;5.97;4.43;;;19.90;99.90;;;;;;5113991;28;20206;-74
2022/07/21 03:05:41;;;;;;;8.10;4.70;;;20.00;99.90;;;;;;5114587;27;20797;-75
2022/07/21 03:08:10;;;;;;;7.13;4.87;;;20.00;99.90;;;;;;5133989;27;20665;-75
2022/07/21 03:10:40;;;;;;;7.17;4.80;;;20.00;99.90;;;;;;5134243;27;20284;-75
2022/07/21 03:13:09;;;;;;;8.20;4.57;;;20.10;99.90;;;;;;5133926;27;20620;-74
2022/07/21 03:15:38;;;;;;;5.80;4.80;;;20.00;99.90;;;;;;5129058;27;20609;-75
2022/07/21 03:18:07;;;;;;;5.27;4.77;;;20.10;99.90;;;;;;5113501;28;20230;-74
2022/07/21 03:20:38;;;;;;;5.87;4.80;;;20.10;99.90;;;;;;5113130;28;20317;-75
2022/07/21 03:23:06;;;;;;;6.47;4.50;;;20.10;99.90;;;;;;5113623;28;20221;-75
2022/07/21 03:25:35;;;;;;;7.27;4.97;;;20.10;99.90;;;;;;5113453;28;20235;-74
2022/07/21 03:28:04;;;;;;;7.10;4.63;;;20.10;99.90;;;;;;5113510;28;20229;-75
2022/07/21 03:30:32;;;;;;;7.83;5.53;;;20.10;99.90;;;;;;5112894;28;20237;-75
2022/07/21 03:33:01;;;;;;;7.93;5.20;;;20.00;99.90;;;;;;5113258;28;20576;-75
2022/07/21 03:35:29;;;;;;;7.60;5.00;;;20.10;99.90;;;;;;5112721;27;20542;-74
2022/07/21 03:38:01;;;;;;;9.13;5.27;;;20.10;99.90;;;;;;5113317;28;20264;-74
2022/07/21 03:40:32;;;;;;;6.03;4.93;;;20.10;99.90;;;;;;5112965;28;20309;-75
2022/07/21 03:43:05;;;;;;;6.43;4.90;;;20.10;99.90;;;;;;5112817;28;20672;-76
2022/07/21 03:45:35;;;;;;;7.63;5.03;;;20.10;99.90;;;;;;5113050;27;20247;-75
2022/07/21 03:48:06;;;;;;;5.40;4.63;;;20.10;99.90;;;;;;5113087;28;20346;-75
2022/07/21 03:50:36;;;;;;;9.53;5.30;;;20.20;99.90;;;;;;5112736;28;20198;-77
2022/07/21 03:53:06;;;;;;;6.63;4.73;;;20.10;99.90;;;;;;5131921;27;20799;-76
2022/07/21 03:55:35;;;;;;;7.13;5.00;;;20.20;99.90;;;;;;5129420;27;20664;-75
2022/07/21 03:58:06;;;;;;;7.07;5.30;;;20.20;99.90;;;;;;5129498;27;20329;-74
2022/07/21 04:00:40;;;;;;;8.57;5.07;;;20.30;99.90;;;;;;5132763;27;20258;-75
2022/07/21 04:03:11;;;;;;;10.90;5.40;;;20.30;99.90;;;;;;5127586;27;20205;-74
2022/07/21 04:05:41;;;;;;;6.50;5.20;;;20.30;99.90;;;;;;5116624;27;20210;-74
2022/07/21 04:08:13;;;;;;;8.50;5.30;;;20.40;99.90;;;;;;5112970;28;20194;-74
2022/07/21 04:10:43;;;;;;;7.70;5.33;;;20.40;99.90;;;;;;5112871;28;20205;-74
2022/07/21 04:13:13;;;;;;;7.27;5.30;;;20.50;99.90;;;;;;5113085;28;20226;-74
2022/07/21 04:15:41;;;;;;;7.83;5.50;;;20.50;99.90;;;;;;5112473;28;20667;-76
2022/07/21 04:18:10;;;;;;;6.60;5.10;;;20.50;99.90;;;;;;5112343;28;20261;-75
2022/07/21 04:20:39;;;;;;;5.97;5.30;;;20.50;99.90;;;;;;5112304;28;20855;-76
2022/07/21 04:23:07;;;;;;;6.80;4.77;;;20.60;99.90;;;;;;5112614;28;20316;-75
2022/07/21 04:25:38;;;;;;;5.80;5.30;;;20.70;99.90;;;;;;5118449;28;20233;-75
2022/07/21 04:28:07;;;;;;;6.80;5.47;;;20.70;99.90;;;;;;5112688;28;20236;-74
2022/07/21 04:30:36;;;;;;;7.97;4.87;;;20.80;99.90;;;;;;5111845;28;20202;-76
2022/07/21 04:33:06;;;;;;;6.57;5.80;;;20.90;99.90;;;;;;5112388;28;20621;-76
2022/07/21 04:35:35;;;;;;;7.07;5.57;;;20.90;99.90;;;;;;5116748;28;20675;-76
2022/07/21 04:38:03;;;;;;;9.17;5.60;;;21.00;99.90;;;;;;5126622;28;20468;-75
2022/07/21 04:40:31;;;;;;;6.30;5.37;;;21.10;99.90;;;;;;5119656;28;20275;-74
2022/07/21 04:43:01;;;;;;;6.80;5.67;;;21.10;99.90;;;;;;5138203;28;20254;-75
2022/07/21 04:45:30;;;;;;;6.13;5.40;;;21.20;99.90;;;;;;5142331;27;20266;-74
2022/07/21 04:48:01;;;;;;;6.07;5.40;;;21.20;99.90;;;;;;5138286;27;20255;-75
2022/07/21 04:50:31;;;;;;;8.00;5.50;;;21.30;99.90;;;;;;5136586;27;20206;-74
2022/07/21 04:53:02;;;;;;;7.10;5.23;;;21.30;99.90;;;;;;5132252;27;20663;-76
2022/07/21 04:55:30;;;;;;;7.10;6.40;;;21.40;99.90;;;;;;5131324;27;20273;-77
2022/07/21 04:57:58;;;;;;;8.43;6.60;;;21.40;99.90;;;;;;5126612;27;20290;-75
2022/07/21 05:00:29;;;;;;;8.37;6.93;;;21.40;99.90;;;;;;5123477;27;20202;-74
2022/07/21 05:02:59;;;;;;;9.27;7.80;;;21.50;99.90;;;;;;5124039;27;20218;-77
2022/07/21 05:05:28;;;;;;;8.40;7.50;;;21.50;99.90;;;;;;5125251;27;20206;-75
2022/07/21 05:07:56;;;;;;;9.60;7.50;;;21.50;99.90;;;;;;5124776;27;20281;-74
2022/07/21 05:10:24;;;;;;;9.03;7.50;;;21.50;99.90;;;;;;5119583;27;20221;-74
2022/07/21 05:12:53;;;;;;;11.17;8.23;;;21.50;99.90;;;;;;5115502;28;20653;-75
2022/07/21 05:15:22;;;;;;;9.67;8.60;;;21.50;99.90;;;;;;5134909;27;20251;-76
2022/07/21 05:17:51;;;;;;;10.60;8.80;;;21.40;99.90;;;;;;5118970;27;20263;-74
2022/07/21 05:20:20;;;;;;;10.10;9.10;;;21.30;99.90;;;;;;5128065;27;20206;-74
2022/07/21 05:22:49;;;;;;;10.50;9.37;;;21.20;99.90;;;;;;5131137;27;20228;-75
2022/07/21 05:25:17;;;;;;;11.00;9.80;;;21.10;99.90;;;;;;5125656;27;20242;-77
2022/07/21 05:27:47;;;;;;;11.33;9.07;;;21.10;99.90;;;;;;5124090;27;20202;-76
2022/07/21 05:30:15;;;;;;;10.47;9.33;;;20.90;99.90;;;;;;5125944;27;20209;-75
2022/07/21 05:32:46;;;;;;;10.87;9.63;;;20.80;99.90;;;;;;5125855;27;20652;-75
2022/07/21 05:35:17;;;;;;;10.57;9.50;;;20.70;99.90;;;;;;5125432;27;20218;-75
2022/07/21 05:37:46;;;;;;;12.50;10.30;;;20.60;99.90;;;;;;5121600;27;20663;-74
2022/07/21 05:40:15;;;;;;;11.20;9.50;;;20.60;99.90;;;;;;5127189;27;20209;-77
2022/07/21 05:42:43;;;;;;;12.30;10.20;;;20.60;99.90;;;;;;5135227;27;20228;-76
2022/07/21 05:45:12;;;;;;;10.80;9.80;;;20.60;99.90;;;;;;5135254;27;20368;-74
2022/07/21 05:47:41;;;;;;;11.83;9.83;;;20.70;99.90;;;;;;5135748;27;20201;-73
2022/07/21 05:50:12;;;;;;;12.30;10.10;;;20.70;99.90;;;;;;5121432;27;20210;-76
2022/07/21 05:52:42;;;;;;;11.53;10.33;;;20.80;99.90;;;;;;5115357;28;20198;-75
2022/07/21 05:55:11;;;;;;;12.40;10.53;;;20.70;99.90;;;;;;5121728;27;20193;-74
2022/07/21 05:57:39;;;;;;;12.70;10.47;;;20.80;99.90;;;;;;5133639;27;20209;-76
2022/07/21 06:00:15;;;;;;;12.00;9.83;;;20.80;99.90;;;;;;5135511;27;20197;-73
2022/07/21 06:02:47;;;;;;;12.07;10.00;;;20.80;99.90;;;;;;5135364;27;20221;-75
2022/07/21 06:05:15;;;;;;;10.40;9.40;;;21.00;99.90;;;;;;5135011;27;20210;-75
2022/07/21 06:07:45;;;;;;;10.43;9.43;;;21.20;99.90;;;;;;5143147;27;20208;-75
2022/07/21 06:10:13;;;;;;;10.13;9.03;;;21.30;99.90;;;;;;5155963;27;20304;-74
2022/07/21 06:12:45;;;;;;;10.50;9.50;;;21.40;99.90;;;;;;5156039;27;20186;-75
2022/07/21 06:15:14;;;;;;;10.10;9.10;;;21.40;99.90;;;;;;5130582;27;20207;-77
2022/07/21 06:17:44;;;;;;;11.53;9.53;;;21.40;99.90;;;;;;5114500;28;20253;-75
2022/07/21 06:20:13;;;;;;;10.33;9.20;;;21.40;99.90;;;;;;5124309;27;20198;-76
2022/07/21 06:22:41;;;;;;;10.63;9.13;;;21.40;99.90;;;;;;5134911;27;20221;-76
2022/07/21 06:25:11;;;;;;;11.63;9.17;;;21.40;99.90;;;;;;5131559;27;20299;-76
2022/07/21 06:27:40;;;;;;;10.17;9.17;;;21.40;99.90;;;;;;5136109;27;20292;-75
2022/07/21 06:30:10;;;;;;;10.33;9.23;;;21.50;99.90;;;;;;5134790;27;20256;-76
2022/07/21 06:32:38;;;;;;;9.77;8.63;;;21.50;99.90;;;;;;5114731;27;20198;-75
2022/07/21 06:35:07;;;;;;;11.90;9.17;;;21.40;99.90;;;;;;5114566;28;20623;-75
2022/07/21 06:37:35;;;;;;;9.53;8.40;;;21.50;99.90;;;;;;5132881;27;20202;-75
2022/07/21 06:40:05;;;;;;;10.33;9.33;;;21.40;99.90;;;;;;5134752;27;20686;-77
2022/07/21 06:42:36;;;;;;;11.10;8.97;;;21.40;99.90;;;;;;5126970;27;20325;-76
2022/07/21 06:45:06;;;;;;;10.20;8.97;;;21.60;99.90;;;;;;5129603;27;20201;-76
2022/07/21 06:47:35;;;;;;;9.97;8.80;;;21.80;99.90;;;;;;5122454;27;20221;-76
2022/07/21 06:50:08;;;;;;;10.87;8.97;;;21.80;99.90;;;;;;5121099;27;20209;-75
2022/07/21 06:52:37;;;;;;;10.33;8.73;;;22.00;99.90;;;;;;5125940;27;20241;-76
2022/07/21 06:55:08;;;;;;;12.27;9.40;;;22.00;99.90;;;;;;5127002;27;20205;-76
2022/07/21 06:57:39;;;;;;;11.07;9.37;;;22.00;99.90;;;;;;5122489;27;20197;-76
2022/07/21 07:00:11;;;;;;;11.80;8.90;;;22.10;99.90;;;;;;5127358;27;20202;-75
2022/07/21 07:02:40;;;;;;;10.00;8.40;;;21.90;99.90;;;;;;5124222;27;20214;-77
2022/07/21 07:05:10;;;;;;;9.23;8.20;;;21.90;99.90;;;;;;5127920;27;20202;-77
2022/07/21 07:07:38;;;;;;;11.57;8.40;;;21.90;99.90;;;;;;5113709;28;20256;-75
2022/07/21 07:10:08;;;;;;;10.67;8.10;;;21.80;99.90;;;;;;5113020;28;20285;-75
2022/07/21 07:12:39;;;;;;;10.43;8.07;;;21.80;99.90;;;;;;5113024;28;20198;-76
2022/07/21 07:15:28;;;;;;;10.33;8.57;;;21.90;99.90;;;;;;5117927;27;20676;-77
2022/07/21 07:17:56;;;;;;;9.13;8.20;;;21.80;99.90;;;;;;5116793;27;20729;-76
2022/07/21 07:20:25;;;;;;;10.00;8.73;;;21.90;99.90;;;;;;5128634;27;20265;-76
2022/07/21 07:22:54;;;;;;;9.67;8.03;;;21.90;99.90;;;;;;5125585;27;20206;-77
2022/07/21 07:25:23;;;;;;;10.53;8.37;;;21.80;99.90;;;;;;5120924;27;20285;-75
2022/07/21 07:28:00;;;;;;;12.80;9.10;;;21.70;99.90;;;;;;5121835;27;20225;-76
2022/07/21 07:30:29;;;;;;;11.27;8.80;;;21.70;99.90;;;;;;5121548;27;20190;-78
2022/07/21 07:32:58;;;;;;;10.23;8.77;;;21.80;99.90;;;;;;5125091;27;20233;-74
2022/07/21 07:35:27;;;;;;;11.10;8.93;;;21.90;99.90;;;;;;5122896;27;20262;-76
2022/07/21 07:37:56;;;;;;;11.30;8.90;;;21.90;99.90;;;;;;5127379;27;20225;-76
2022/07/21 07:40:24;;;;;;;10.73;8.43;;;21.90;99.90;;;;;;5122402;27;20691;-75
2022/07/21 07:42:55;;;;;;;12.87;8.07;;;22.00;99.90;;;;;;5123609;27;20257;-77
2022/07/21 07:45:27;;;;;;;12.80;8.50;;;22.10;99.90;;;;;;5123755;27;20285;-77
2022/07/21 07:48:00;;;;;;;9.43;8.20;;;22.10;99.90;;;;;;5123925;27;20202;-77
2022/07/21 07:50:31;;;;;;;11.40;8.30;;;22.10;99.90;;;;;;5122626;27;20206;-76
2022/07/21 07:53:00;;;;;;;10.53;8.30;;;22.20;99.90;;;;;;5126663;27;20202;-77
2022/07/21 07:55:29;;;;;;;9.30;8.30;;;22.20;99.90;;;;;;5130445;27;20202;-77
2022/07/21 07:57:58;;;;;;;9.50;8.57;;;22.30;99.90;;;;;;5134576;27;20606;-77
2022/07/21 08:00:27;;;;;;;9.10;8.20;;;22.20;99.90;;;;;;5133692;27;20763;-78
2022/07/21 08:03:16;;;;;;;10.73;8.73;;;22.10;99.90;;;;;;5127562;27;20586;-76
2022/07/21 08:05:49;;;;;;;9.77;8.20;;;22.10;99.90;;;;;;5134072;27;20631;-76
2022/07/21 08:08:18;;;;;;;10.40;8.30;;;22.20;99.90;;;;;;5124238;27;20202;-77
2022/07/21 08:10:48;;;;;;;10.80;8.60;;;22.20;99.90;;;;;;5130015;27;20194;-77
2022/07/21 08:13:19;;;;;;;11.57;8.63;;;22.30;99.90;;;;;;5125820;27;20229;-76
2022/07/21 08:15:50;;;;;;;12.70;8.37;;;22.40;99.90;;;;;;5129108;27;20202;-76
2022/07/21 08:18:20;;;;;;;10.17;8.07;;;22.60;99.90;;;;;;5130943;27;20202;-75
2022/07/21 08:20:51;;;;;;;10.40;8.50;;;22.90;99.90;;;;;;5124681;27;20196;-76
2022/07/21 08:23:19;;;;;;;9.77;8.77;;;22.90;99.90;;;;;;5127855;27;20293;-78
2022/07/21 08:25:49;;;;;;;9.53;8.53;;;22.80;99.90;;;;;;5131963;28;20206;-77
2022/07/21 08:28:17;;;;;;;9.20;8.30;;;22.90;99.90;;;;;;5124397;28;20198;-77
2022/07/21 08:30:46;;;;;;;9.50;8.23;;;23.00;99.90;;;;;;5126024;27;20209;-76
2022/07/21 08:33:16;;;;;;;11.57;9.00;;;22.90;99.90;;;;;;5126074;28;20202;-77
2022/07/21 08:35:47;;;;;;;9.30;8.07;;;22.80;99.90;;;;;;5130207;27;20209;-76
2022/07/21 08:38:15;;;;;;;11.90;8.90;;;22.60;99.90;;;;;;5116312;28;20623;-76
2022/07/21 08:40:46;;;;;;;10.53;7.90;;;22.60;99.90;;;;;;5127139;28;20209;-78
2022/07/21 08:43:14;;;;;;;9.70;8.70;;;22.50;99.90;;;;;;5124988;28;20260;-76
2022/07/21 08:45:43;;;;;;;10.07;8.93;;;22.60;99.90;;;;;;5126613;27;20225;-76
2022/07/21 08:48:14;;;;;;;12.23;8.43;;;22.60;99.90;;;;;;5112262;28;20259;-76
2022/07/21 08:50:44;;;;;;;9.53;8.63;;;22.70;99.90;;;;;;5112072;28;20288;-76
2022/07/21 08:53:12;;;;;;;9.93;8.80;;;22.90;99.90;;;;;;5112629;28;20640;-76
2022/07/21 08:55:40;;;;;;;10.20;9.07;;;23.10;99.90;;;;;;5117546;28;20258;-76
2022/07/21 08:58:10;;;;;;;9.97;8.93;;;23.40;99.90;;;;;;5132676;27;20678;-77
2022/07/21 09:00:40;;;;;;;10.17;8.57;;;23.60;99.90;;;;;;5132579;27;20549;-79
2022/07/21 09:03:17;;;;;;;11.20;8.60;;;23.40;99.90;;;;;;5133041;27;20242;-75
2022/07/21 09:06:02;;;;;;;16.10;8.43;;;23.50;99.90;;;;;;5126562;27;20704;-77
2022/07/21 09:08:32;;;;;;;10.47;8.00;;;23.60;99.90;;;;;;5112339;28;20226;-76
2022/07/21 09:11:19;;;;;;;9.57;8.47;;;23.60;99.90;;;;;;5112412;28;20239;-76
2022/07/21 09:13:51;;;;;;;10.57;8.90;;;23.50;99.90;;;;;;5111933;28;20270;-76
2022/07/21 09:16:37;;;;;;;9.80;7.77;;;23.50;99.90;;;;;;5122758;28;20213;-76
2022/07/21 09:19:06;;;;;;;9.10;8.10;;;23.40;99.90;;;;;;5127966;27;20201;-76
2022/07/21 09:21:36;;;;;;;9.20;8.30;;;23.40;99.90;;;;;;5119537;27;20733;-76
2022/07/21 09:24:16;;;;;;;10.60;8.57;;;23.40;99.90;;;;;;5112282;28;20299;-75
2022/07/21 09:27:09;;;;;;;10.87;8.67;;;23.40;99.90;;;;;;5111876;28;20244;-77
2022/07/21 09:29:43;;;;;;;10.27;8.80;;;23.20;99.90;;;;;;5111840;28;20191;-76
2022/07/21 09:32:23;;;;;;;8.37;7.53;;;23.20;99.90;;;;;;5113590;28;20547;-77
2022/07/21 09:34:54;;;;;;;10.87;8.10;;;23.30;99.90;;;;;;5115676;28;20213;-76
2022/07/21 09:37:30;;;;;;;8.67;7.50;;;23.20;99.90;;;;;;5124731;27;20289;-76
2022/07/21 09:40:04;;;;;;;7.53;6.63;;;23.30;99.90;;;;;;5123779;27;20221;-75
2022/07/21 09:42:35;;;;;;;7.43;6.53;;;23.50;99.90;;;;;;5120966;27;20240;-77
2022/07/21 09:45:07;;;;;;;7.77;6.40;;;23.90;99.90;;;;;;5125286;27;20312;-76
2022/07/21 09:47:40;;;;;;;8.90;6.53;;;23.60;99.90;;;;;;5127040;27;20226;-76
2022/07/21 09:50:11;;;;;;;8.23;6.23;;;24.20;99.90;;;;;;5127052;27;20205;-76
2022/07/21 09:52:59;;;;;;;8.53;6.30;;;24.50;99.90;;;;;;5120711;27;20197;-76
2022/07/21 09:55:30;;;;;;;10.00;6.77;;;24.90;99.90;;;;;;5120420;27;20282;-78
2022/07/21 09:58:01;;;;;;;10.23;6.50;;;25.40;99.90;;;;;;5127287;27;20218;-78
2022/07/21 10:00:29;;;;;;;8.27;6.73;;;25.60;99.90;;;;;;5126453;27;20271;-77
2022/07/21 10:03:05;;;;;;;8.60;7.10;;;25.40;99.90;;;;;;5130973;27;20201;-75
2022/07/21 10:05:35;;;;;;;8.03;6.77;;;25.40;99.90;;;;;;5125328;27;20632;-77
2022/07/21 10:08:06;;;;;;;8.07;6.90;;;25.10;99.90;;;;;;5128874;27;20217;-76
2022/07/21 10:10:35;;;;;;;9.20;6.60;;;24.70;99.90;;;;;;5124108;27;20225;-75
2022/07/21 10:13:24;;;;;;;7.00;6.20;;;24.60;99.90;;;;;;5125900;27;20612;-77
2022/07/21 10:15:53;;;;;;;7.53;6.77;;;24.30;99.90;;;;;;5124990;27;20217;-75
2022/07/21 10:18:30;;;;;;;7.50;6.80;;;23.80;99.90;;;;;;5125752;27;20914;-77
2022/07/21 10:21:05;;;;;;;8.53;7.10;;;24.10;99.90;;;;;;5125922;27;20221;-77
2022/07/21 10:23:40;;;;;;;9.40;6.63;;;24.20;99.90;;;;;;5114778;28;20208;-76
2022/07/21 10:26:11;;;;;;;10.53;7.63;;;24.10;99.90;;;;;;5114038;28;20287;-77
2022/07/21 10:28:40;;;;;;;9.63;7.33;;;24.20;99.90;;;;;;5114314;28;20256;-76
2022/07/21 10:31:19;;;;;;;10.23;7.90;;;24.20;99.90;;;;;;5114021;28;20210;-76
2022/07/21 10:34:00;;;;;;;8.67;7.63;;;24.20;99.90;;;;;;5114391;28;20190;-76
2022/07/21 10:36:42;;;;;;;9.63;8.00;;;24.20;99.90;;;;;;5113661;28;20194;-77
2022/07/21 10:39:27;;;;;;;8.20;7.40;;;24.20;99.90;;;;;;5127218;27;20293;-76
2022/07/21 10:41:59;;;;;;;9.73;7.40;;;24.20;99.90;;;;;;5117082;27;20230;-76
2022/07/21 10:44:41;;;;;;;15.43;7.70;;;24.20;99.90;;;;;;5122792;27;20205;-75
2022/07/21 10:47:11;;;;;;;9.83;8.07;;;24.60;99.90;;;;;;5119983;27;20679;-77
2022/07/21 10:49:50;;;;;;;9.30;8.40;;;24.60;99.90;;;;;;5116847;27;20198;-76
2022/07/21 10:52:55;;;;;;;8.37;7.57;;;24.90;99.90;;;;;;5124435;27;20288;-76
2022/07/21 10:55:27;;;;;;;10.23;7.50;;;24.60;99.90;;;;;;5122729;27;20271;-77
2022/07/21 10:58:16;;;;;;;8.27;7.23;;;24.40;99.90;;;;;;5124536;27;20260;-77
2022/07/21 11:00:47;;;;;;;9.77;7.83;;;24.30;99.90;;;;;;5122367;27;20281;-76
2022/07/21 11:03:22;;;;;;;9.10;7.53;;;24.30;99.90;;;;;;5126554;27;20213;-75
2022/07/21 11:06:14;;;;;;;9.13;8.23;;;24.00;99.90;;;;;;5127255;27;20246;-75
2022/07/21 11:08:44;;;;;;;9.43;8.43;;;23.80;99.90;;;;;;5113104;28;20229;-78
2022/07/21 11:11:16;;;;;;;10.20;9.20;;;23.70;99.90;;;;;;5113382;28;20214;-75
2022/07/21 11:14:02;;;;;;;12.60;8.77;;;23.50;99.90;;;;;;5112893;28;20217;-76
2022/07/21 11:17:02;;;;;;;11.80;9.20;;;23.60;99.90;;;;;;5113503;28;20202;-78
2022/07/21 11:19:35;;;;;;;9.60;8.70;;;23.50;99.90;;;;;;5123520;27;20261;-76
2022/07/21 11:22:08;;;;;;;16.43;8.90;;;23.40;99.90;;;;;;5134124;27;20274;-75
2022/07/21 11:24:37;;;;;;;10.00;9.00;;;23.40;99.90;;;;;;5133219;27;20674;-77
2022/07/21 11:27:10;;;;;;;10.83;9.73;;;22.90;99.90;;;;;;5133370;27;20718;-75
2022/07/21 11:29:40;;;;;;;11.17;9.17;;;22.90;99.90;;;;;;5134002;27;20277;-75
2022/07/21 11:32:09;;;;;;;10.37;9.37;;;22.90;99.90;;;;;;5131562;27;20736;-76
2022/07/21 11:34:42;;;;;;;11.70;9.40;;;22.90;99.90;;;;;;5113082;27;20206;-76
2022/07/21 11:37:11;;;;;;;11.43;10.23;;;22.70;99.90;;;;;;5113011;28;20236;-76
2022/07/21 11:40:01;;;;;;;13.10;9.37;;;22.50;99.90;;;;;;5118550;27;20201;-76
2022/07/21 11:42:30;;;;;;;11.13;10.03;;;22.50;99.90;;;;;;5133453;27;20213;-75
2022/07/21 11:44:59;;;;;;;12.10;9.93;;;22.40;99.90;;;;;;5132054;27;20234;-76
2022/07/21 11:47:27;;;;;;;13.47;10.00;;;22.40;99.90;;;;;;5133725;27;20205;-76
2022/07/21 11:49:58;;;;;;;10.23;9.20;;;22.40;99.90;;;;;;5133807;27;20357;-75
2022/07/21 11:52:28;;;;;;;10.47;9.40;;;22.50;99.90;;;;;;5133572;27;20225;-76
2022/07/21 11:54:57;;;;;;;11.53;9.67;;;22.50;99.90;;;;;;5130527;27;20270;-76
2022/07/21 11:57:27;;;;;;;11.17;8.90;;;22.60;99.90;;;;;;5124906;27;20788;-76
2022/07/21 11:59:58;;;;;;;10.13;9.10;;;22.80;99.90;;;;;;5126012;27;20197;-76
2022/07/21 12:02:31;;;;;;;10.60;9.50;;;22.90;99.90;;;;;;5124008;27;20211;-75
2022/07/21 12:05:01;;;;;;;11.20;10.03;;;23.00;99.90;;;;;;5123169;27;20229;-75
2022/07/21 12:07:31;;;;;;;11.07;9.83;;;22.90;99.90;;;;;;5121083;27;20221;-76
2022/07/21 12:10:04;;;;;;;11.70;10.50;;;23.00;99.90;;;;;;5120019;27;20251;-77
2022/07/21 12:12:35;;;;;;;11.50;10.40;;;22.80;99.90;;;;;;5125057;27;20221;-76
2022/07/21 12:15:16;;;;;;;11.57;10.53;;;22.60;99.90;;;;;;5127500;27;20755;-75
2022/07/21 12:17:46;;;;;;;12.73;10.00;;;22.70;99.90;;;;;;5125299;27;20202;-76
2022/07/21 12:20:16;;;;;;;10.80;9.43;;;23.00;99.90;;;;;;5123650;27;20602;-76
2022/07/21 12:22:46;;;;;;;11.07;9.97;;;23.10;99.90;;;;;;5125142;27;20206;-77
2022/07/21 12:25:16;;;;;;;10.90;9.77;;;22.90;99.90;;;;;;5120633;28;20194;-76
2022/07/21 12:27:46;;;;;;;10.73;9.70;;;22.70;99.90;;;;;;5131389;28;20274;-78
2022/07/21 12:30:34;;;;;;;12.50;11.20;;;22.80;99.90;;;;;;5129118;28;20202;-77
2022/07/21 12:33:08;;;;;;;12.70;11.60;;;22.80;99.90;;;;;;5123570;28;20241;-75
2022/07/21 12:35:40;;;;;;;11.60;10.40;;;22.80;99.90;;;;;;5125811;28;20210;-76
2022/07/21 12:38:11;;;;;;;13.20;11.07;;;22.80;99.90;;;;;;5118468;28;20198;-75
2022/07/21 12:40:42;;;;;;;12.70;11.60;;;22.60;99.90;;;;;;5124330;28;20633;-77
2022/07/21 12:43:31;;;;;;;12.70;11.47;;;22.60;99.90;;;;;;5128075;28;20209;-76
2022/07/21 12:46:03;;;;;;;12.80;11.50;;;22.70;99.90;;;;;;5125578;28;20222;-75
2022/07/21 12:48:33;;;;;;;13.10;11.70;;;22.80;99.90;;;;;;5124922;28;20195;-75
2022/07/21 12:51:21;;;;;;;13.07;10.90;;;22.80;99.90;;;;;;5126432;28;20202;-76
2022/07/21 12:53:52;;;;;;;12.10;10.73;;;22.90;99.90;;;;;;5119276;28;20206;-75
2022/07/21 12:56:22;;;;;;;12.00;10.73;;;23.20;99.90;;;;;;5117028;28;20191;-76
2022/07/21 12:58:51;;;;;;;11.90;10.67;;;23.40;99.90;;;;;;5127314;28;20225;-76
2022/07/21 13:01:27;;;;;;;11.23;10.10;;;23.50;99.90;;;;;;5123772;28;20245;-76
2022/07/21 13:03:56;;;;;;;11.37;10.27;;;23.40;99.90;;;;;;5129068;28;20261;-76